HAZ8311 ZGSZ-VTSP
Flight info
| Callsign | HAZ8311 |
|---|---|
| Flight time | 3h 0m |
| Altitude | 34100 |
| Route | TOMUD1 TOMUD R200 BIGRO/K0893S1100 G221 SAMAS A202 NONEM/K0882S1160 A202 ASSAD/K0882F380 A202 VILAO/N0476F380 A202 RAMEI W42 MENEX Y8 SAVSA SAVSA1D |
| Aircraft | A339/H-SADE1E2E3GHIJ3J5M1P2RWXY/LB2D1 |
Departure
| Time | 2026-04-23 08:11 |
|---|---|
| Airport | Shenzhen Bao'an International Airport (ZGSZ) |
Arrival
| Time | 2026-04-23 11:12 |
|---|---|
| Airport | Phuket International Airport (VTSP) |
| Time | Latitude | Longitude | Altitude | Speed | Heading |
|---|---|---|---|---|---|
| 2026-04-23 07:45 | 22.64406 | 113.79803 | 30 ft | 0 kts | 212° |
| 2026-04-23 07:57 | 22.64415 | 113.79809 | 30 ft | 2 kts | 212° |
| 2026-04-23 07:57 | 22.64428 | 113.79818 | 30 ft | 2 kts | 212° |
| 2026-04-23 07:57 | 22.64440 | 113.79826 | 30 ft | 2 kts | 212° |
| 2026-04-23 07:58 | 22.64453 | 113.79835 | 30 ft | 2 kts | 212° |
| 2026-04-23 07:58 | 22.64466 | 113.79844 | 30 ft | 2 kts | 215° |
| 2026-04-23 07:58 | 22.64478 | 113.79854 | 30 ft | 2 kts | 217° |
| 2026-04-23 07:58 | 22.64490 | 113.79864 | 30 ft | 2 kts | 219° |
| 2026-04-23 07:59 | 22.64502 | 113.79874 | 30 ft | 2 kts | 221° |
| 2026-04-23 07:59 | 22.64513 | 113.79885 | 30 ft | 2 kts | 223° |
| 2026-04-23 07:59 | 22.64516 | 113.79887 | 30 ft | 0 kts | 223° |
| 2026-04-23 08:01 | 22.64515 | 113.79887 | 30 ft | 0 kts | 223° |
| 2026-04-23 08:01 | 22.64506 | 113.79876 | 30 ft | 3 kts | 236° |
| 2026-04-23 08:01 | 22.64501 | 113.79838 | 30 ft | 7 kts | 280° |
| 2026-04-23 08:01 | 22.64531 | 113.79775 | 30 ft | 9 kts | 305° |
| 2026-04-23 08:02 | 22.64577 | 113.79722 | 30 ft | 9 kts | 294° |
| 2026-04-23 08:02 | 22.64568 | 113.79657 | 30 ft | 9 kts | 244° |
| 2026-04-23 08:02 | 22.64536 | 113.79590 | 30 ft | 10 kts | 243° |
| 2026-04-23 08:02 | 22.64500 | 113.79512 | 30 ft | 12 kts | 244° |
| 2026-04-23 08:03 | 22.64439 | 113.79468 | 30 ft | 11 kts | 170° |
| 2026-04-23 08:03 | 22.64363 | 113.79504 | 30 ft | 12 kts | 154° |
| 2026-04-23 08:03 | 22.64284 | 113.79546 | 30 ft | 12 kts | 154° |
| 2026-04-23 08:03 | 22.64226 | 113.79532 | 30 ft | 8 kts | 236° |
| 2026-04-23 08:04 | 22.64192 | 113.79472 | 30 ft | 9 kts | 244° |
| 2026-04-23 08:04 | 22.64155 | 113.79431 | 30 ft | 7 kts | 187° |
| 2026-04-23 08:04 | 22.64090 | 113.79449 | 30 ft | 13 kts | 154° |
| 2026-04-23 08:04 | 22.63972 | 113.79512 | 30 ft | 24 kts | 153° |
| 2026-04-23 08:05 | 22.63803 | 113.79606 | 30 ft | 27 kts | 153° |
| 2026-04-23 08:05 | 22.63636 | 113.79697 | 30 ft | 25 kts | 153° |
| 2026-04-23 08:05 | 22.63498 | 113.79771 | 30 ft | 24 kts | 153° |
| 2026-04-23 08:05 | 22.63336 | 113.79860 | 30 ft | 23 kts | 152° |
| 2026-04-23 08:06 | 22.63192 | 113.79941 | 30 ft | 22 kts | 152° |
| 2026-04-23 08:06 | 22.63053 | 113.80016 | 30 ft | 21 kts | 154° |
| 2026-04-23 08:06 | 22.62921 | 113.80088 | 30 ft | 21 kts | 152° |
| 2026-04-23 08:06 | 22.62790 | 113.80160 | 30 ft | 20 kts | 153° |
| 2026-04-23 08:07 | 22.62665 | 113.80228 | 30 ft | 20 kts | 153° |
| 2026-04-23 08:07 | 22.62544 | 113.80295 | 30 ft | 15 kts | 153° |
| 2026-04-23 08:07 | 22.62465 | 113.80296 | 30 ft | 8 kts | 228° |
| 2026-04-23 08:07 | 22.62456 | 113.80279 | 30 ft | 0 kts | 242° |
| 2026-04-23 08:09 | 22.62453 | 113.80273 | 30 ft | 1 kts | 242° |
| 2026-04-23 08:09 | 22.62442 | 113.80252 | 30 ft | 4 kts | 242° |
| 2026-04-23 08:09 | 22.62425 | 113.80218 | 30 ft | 5 kts | 242° |
| 2026-04-23 08:10 | 22.62405 | 113.80173 | 30 ft | 6 kts | 257° |
| 2026-04-23 08:10 | 22.62428 | 113.80138 | 30 ft | 4 kts | 335° |
| 2026-04-23 08:10 | 22.62631 | 113.80029 | 30 ft | 64 kts | 333° |
| 2026-04-23 08:11 | 22.63211 | 113.79712 | 30 ft | 120 kts | 332° |
| 2026-04-23 08:11 | 22.64104 | 113.79222 | 34 ft | 165 kts | 331° |
| 2026-04-23 08:11 | 22.65167 | 113.78620 | 391 ft | 175 kts | 332° |
| 2026-04-23 08:11 | 22.66272 | 113.78049 | 961 ft | 176 kts | 331° |
| 2026-04-23 08:12 | 22.67131 | 113.77175 | 1574 ft | 174 kts | 298° |
| 2026-04-23 08:12 | 22.67717 | 113.76052 | 2137 ft | 171 kts | 312° |
| 2026-04-23 08:12 | 22.68583 | 113.75159 | 2627 ft | 172 kts | 319° |
| 2026-04-23 08:12 | 22.69514 | 113.74317 | 3101 ft | 173 kts | 318° |
| 2026-04-23 08:13 | 22.70443 | 113.73460 | 3432 ft | 183 kts | 316° |
| 2026-04-23 08:13 | 22.71441 | 113.72509 | 3697 ft | 197 kts | 315° |
| 2026-04-23 08:13 | 22.72435 | 113.71540 | 3956 ft | 212 kts | 314° |
| 2026-04-23 08:13 | 22.73577 | 113.70416 | 4255 ft | 228 kts | 314° |
| 2026-04-23 08:14 | 22.74791 | 113.69213 | 4671 ft | 240 kts | 315° |
| 2026-04-23 08:14 | 22.76049 | 113.67971 | 5311 ft | 242 kts | 312° |
| 2026-04-23 08:14 | 22.76971 | 113.66482 | 5927 ft | 238 kts | 282° |
| 2026-04-23 08:14 | 22.77050 | 113.64722 | 6560 ft | 235 kts | 256° |
| 2026-04-23 08:15 | 22.76434 | 113.63108 | 7198 ft | 236 kts | 243° |
| 2026-04-23 08:15 | 22.75643 | 113.61512 | 7820 ft | 238 kts | 243° |
| 2026-04-23 08:15 | 22.74590 | 113.60119 | 8414 ft | 245 kts | 220° |
| 2026-04-23 08:15 | 22.73039 | 113.59328 | 8979 ft | 256 kts | 197° |
| 2026-04-23 08:16 | 22.71187 | 113.59319 | 9295 ft | 282 kts | 171° |
| 2026-04-23 08:16 | 22.69252 | 113.60050 | 9639 ft | 298 kts | 165° |
| 2026-04-23 08:16 | 22.67298 | 113.60863 | 10148 ft | 304 kts | 165° |
| 2026-04-23 08:16 | 22.65275 | 113.61699 | 10454 ft | 318 kts | 164° |
| 2026-04-23 08:17 | 22.63152 | 113.62568 | 10712 ft | 333 kts | 164° |
| 2026-04-23 08:17 | 22.60901 | 113.63483 | 10959 ft | 347 kts | 164° |
| 2026-04-23 08:17 | 22.58607 | 113.64414 | 11205 ft | 362 kts | 164° |
| 2026-04-23 08:17 | 22.56187 | 113.65394 | 11449 ft | 376 kts | 163° |
| 2026-04-23 08:18 | 22.53635 | 113.66222 | 11663 ft | 382 kts | 177° |
| 2026-04-23 08:18 | 22.51027 | 113.66044 | 12064 ft | 379 kts | 199° |
| 2026-04-23 08:18 | 22.48643 | 113.64907 | 12652 ft | 372 kts | 216° |
| 2026-04-23 08:18 | 22.46474 | 113.63367 | 13195 ft | 374 kts | 217° |
| 2026-04-23 08:19 | 22.44288 | 113.61844 | 13668 ft | 379 kts | 216° |
| 2026-04-23 08:19 | 22.42053 | 113.60299 | 14224 ft | 381 kts | 216° |
| 2026-04-23 08:19 | 22.39827 | 113.58766 | 14724 ft | 384 kts | 216° |
| 2026-04-23 08:19 | 22.37552 | 113.57203 | 15218 ft | 387 kts | 216° |
| 2026-04-23 08:20 | 22.35257 | 113.55630 | 15730 ft | 389 kts | 216° |
| 2026-04-23 08:20 | 22.32981 | 113.54069 | 16201 ft | 392 kts | 216° |
| 2026-04-23 08:20 | 22.30641 | 113.52466 | 16697 ft | 395 kts | 216° |
| 2026-04-23 08:20 | 22.28346 | 113.50893 | 17153 ft | 397 kts | 216° |
| 2026-04-23 08:21 | 22.25990 | 113.49280 | 17602 ft | 400 kts | 216° |
| 2026-04-23 08:21 | 22.23765 | 113.47465 | 18017 ft | 400 kts | 226° |
| 2026-04-23 08:21 | 22.21978 | 113.45202 | 18472 ft | 398 kts | 238° |
| 2026-04-23 08:21 | 22.20651 | 113.42593 | 18910 ft | 398 kts | 248° |
| 2026-04-23 08:22 | 22.19613 | 113.39814 | 19353 ft | 400 kts | 250° |
| 2026-04-23 08:22 | 22.18586 | 113.37015 | 19736 ft | 404 kts | 250° |
| 2026-04-23 08:22 | 22.17547 | 113.34188 | 20153 ft | 406 kts | 249° |
| 2026-04-23 08:22 | 22.16518 | 113.31400 | 20577 ft | 407 kts | 249° |
| 2026-04-23 08:23 | 22.15465 | 113.28554 | 20978 ft | 409 kts | 249° |
| 2026-04-23 08:23 | 22.14407 | 113.25699 | 21347 ft | 412 kts | 249° |
| 2026-04-23 08:23 | 22.13281 | 113.22828 | 21695 ft | 415 kts | 247° |
| 2026-04-23 08:23 | 22.12111 | 113.20002 | 22067 ft | 417 kts | 247° |
| 2026-04-23 08:24 | 22.10923 | 113.17142 | 22421 ft | 418 kts | 247° |
| 2026-04-23 08:24 | 22.09742 | 113.14301 | 22768 ft | 420 kts | 247° |
| 2026-04-23 08:24 | 22.08534 | 113.11400 | 23088 ft | 423 kts | 247° |
| 2026-04-23 08:24 | 22.07327 | 113.08504 | 23429 ft | 425 kts | 247° |
| 2026-04-23 08:25 | 22.06120 | 113.05607 | 23792 ft | 427 kts | 247° |
| 2026-04-23 08:25 | 22.04911 | 113.02708 | 24119 ft | 429 kts | 247° |
| 2026-04-23 08:25 | 22.03680 | 112.99754 | 24432 ft | 432 kts | 248° |
| 2026-04-23 08:25 | 22.02504 | 112.96796 | 24790 ft | 432 kts | 249° |
| 2026-04-23 08:26 | 22.01339 | 112.93781 | 25105 ft | 434 kts | 249° |
| 2026-04-23 08:26 | 22.00179 | 112.90772 | 25399 ft | 437 kts | 249° |
| 2026-04-23 08:26 | 21.99020 | 112.87779 | 25721 ft | 438 kts | 249° |
| 2026-04-23 08:26 | 21.97842 | 112.84753 | 26021 ft | 440 kts | 249° |
| 2026-04-23 08:27 | 21.96659 | 112.81723 | 26275 ft | 443 kts | 249° |
| 2026-04-23 08:27 | 21.95424 | 112.78632 | 26556 ft | 445 kts | 248° |
| 2026-04-23 08:27 | 21.94200 | 112.75598 | 26840 ft | 447 kts | 248° |
| 2026-04-23 08:27 | 21.92952 | 112.72515 | 27142 ft | 448 kts | 248° |
| 2026-04-23 08:28 | 21.91722 | 112.69476 | 27515 ft | 447 kts | 249° |
| 2026-04-23 08:28 | 21.90477 | 112.66398 | 27949 ft | 446 kts | 249° |
| 2026-04-23 08:28 | 21.89250 | 112.63367 | 28373 ft | 444 kts | 249° |
| 2026-04-23 08:28 | 21.88020 | 112.60323 | 28753 ft | 443 kts | 249° |
| 2026-04-23 08:29 | 21.86790 | 112.57278 | 29140 ft | 442 kts | 249° |
| 2026-04-23 08:29 | 21.85566 | 112.54255 | 29610 ft | 439 kts | 249° |
| 2026-04-23 08:29 | 21.84376 | 112.51268 | 30025 ft | 438 kts | 249° |
| 2026-04-23 08:29 | 21.83191 | 112.48272 | 30361 ft | 438 kts | 249° |
| 2026-04-23 08:30 | 21.81985 | 112.45223 | 30709 ft | 438 kts | 249° |
| 2026-04-23 08:30 | 21.80804 | 112.42242 | 31082 ft | 437 kts | 249° |
| 2026-04-23 08:30 | 21.79624 | 112.39264 | 31431 ft | 436 kts | 249° |
| 2026-04-23 08:30 | 21.78423 | 112.36240 | 31789 ft | 436 kts | 249° |
| 2026-04-23 08:31 | 21.77232 | 112.33244 | 32144 ft | 435 kts | 249° |
| 2026-04-23 08:31 | 21.76062 | 112.30299 | 32539 ft | 434 kts | 249° |
| 2026-04-23 08:31 | 21.74876 | 112.27320 | 32977 ft | 432 kts | 249° |
| 2026-04-23 08:31 | 21.73693 | 112.24355 | 33377 ft | 431 kts | 249° |
| 2026-04-23 08:32 | 21.72511 | 112.21393 | 33752 ft | 430 kts | 249° |
| 2026-04-23 08:32 | 21.71341 | 112.18460 | 34134 ft | 429 kts | 249° |
| 2026-04-23 08:32 | 21.70172 | 112.15532 | 34506 ft | 428 kts | 249° |
| 2026-04-23 08:32 | 21.69004 | 112.12604 | 34834 ft | 428 kts | 249° |
| 2026-04-23 08:33 | 21.67821 | 112.09644 | 35154 ft | 428 kts | 249° |
| 2026-04-23 08:33 | 21.66662 | 112.06743 | 35451 ft | 428 kts | 249° |
| 2026-04-23 08:33 | 21.65480 | 112.03787 | 35713 ft | 428 kts | 249° |
| 2026-04-23 08:33 | 21.64313 | 112.00874 | 35902 ft | 430 kts | 249° |
| 2026-04-23 08:34 | 21.61928 | 111.94928 | 35898 ft | 432 kts | 249° |
| 2026-04-23 08:34 | 21.59496 | 111.89059 | 35906 ft | 433 kts | 246° |
| 2026-04-23 08:35 | 21.56589 | 111.83395 | 35900 ft | 436 kts | 241° |
| 2026-04-23 08:35 | 21.53145 | 111.77998 | 35893 ft | 438 kts | 236° |
| 2026-04-23 08:36 | 21.49272 | 111.72957 | 35893 ft | 440 kts | 233° |
| 2026-04-23 08:36 | 21.45306 | 111.67961 | 35895 ft | 437 kts | 233° |
| 2026-04-23 08:37 | 21.41366 | 111.63003 | 35890 ft | 438 kts | 233° |
| 2026-04-23 08:37 | 21.37413 | 111.58036 | 35888 ft | 438 kts | 233° |
| 2026-04-23 08:38 | 21.33451 | 111.53062 | 35886 ft | 439 kts | 233° |
| 2026-04-23 08:38 | 21.29474 | 111.48074 | 35885 ft | 440 kts | 233° |
| 2026-04-23 08:39 | 21.25497 | 111.43095 | 35890 ft | 439 kts | 233° |
| 2026-04-23 08:39 | 21.21511 | 111.38105 | 35891 ft | 441 kts | 233° |
| 2026-04-23 08:40 | 21.17530 | 111.33128 | 35896 ft | 440 kts | 233° |
| 2026-04-23 08:40 | 21.13557 | 111.28163 | 35894 ft | 442 kts | 233° |
| 2026-04-23 08:41 | 21.09555 | 111.23167 | 35895 ft | 441 kts | 233° |
| 2026-04-23 08:41 | 21.05554 | 111.18179 | 35889 ft | 442 kts | 233° |
| 2026-04-23 08:42 | 21.01539 | 111.13176 | 35891 ft | 443 kts | 233° |
| 2026-04-23 08:42 | 20.97539 | 111.08199 | 35883 ft | 443 kts | 233° |
| 2026-04-23 08:43 | 20.93530 | 111.03201 | 35888 ft | 442 kts | 233° |
| 2026-04-23 08:43 | 20.89528 | 110.98182 | 35886 ft | 441 kts | 233° |
| 2026-04-23 08:44 | 20.85557 | 110.93202 | 35880 ft | 443 kts | 233° |
| 2026-04-23 08:44 | 20.81558 | 110.88199 | 35887 ft | 442 kts | 233° |
| 2026-04-23 08:45 | 20.77578 | 110.83225 | 35883 ft | 443 kts | 233° |
| 2026-04-23 08:45 | 20.73564 | 110.78212 | 35876 ft | 443 kts | 233° |
| 2026-04-23 08:46 | 20.69569 | 110.73229 | 35875 ft | 444 kts | 233° |
| 2026-04-23 08:46 | 20.65564 | 110.68233 | 35877 ft | 443 kts | 233° |
| 2026-04-23 08:47 | 20.61542 | 110.63223 | 35878 ft | 443 kts | 233° |
| 2026-04-23 08:47 | 20.57550 | 110.58257 | 35876 ft | 442 kts | 233° |
| 2026-04-23 08:48 | 20.53538 | 110.53271 | 35869 ft | 443 kts | 233° |
| 2026-04-23 08:48 | 20.49529 | 110.48265 | 35878 ft | 444 kts | 233° |
| 2026-04-23 08:49 | 20.45663 | 110.43192 | 35871 ft | 443 kts | 234° |
| 2026-04-23 08:49 | 20.41778 | 110.38075 | 35870 ft | 444 kts | 234° |
| 2026-04-23 08:50 | 20.37873 | 110.32958 | 35872 ft | 443 kts | 234° |
| 2026-04-23 08:50 | 20.33986 | 110.27876 | 35878 ft | 443 kts | 234° |
| 2026-04-23 08:51 | 20.30100 | 110.22799 | 35872 ft | 443 kts | 234° |
| 2026-04-23 08:51 | 20.26274 | 110.17702 | 35862 ft | 443 kts | 234° |
| 2026-04-23 08:52 | 20.22412 | 110.12538 | 35865 ft | 444 kts | 234° |
| 2026-04-23 08:52 | 20.18566 | 110.07407 | 35862 ft | 444 kts | 234° |
| 2026-04-23 08:53 | 20.14732 | 110.02299 | 35860 ft | 445 kts | 234° |
| 2026-04-23 08:53 | 20.10867 | 109.97153 | 35865 ft | 445 kts | 234° |
| 2026-04-23 08:54 | 20.06995 | 109.92004 | 35882 ft | 444 kts | 234° |
| 2026-04-23 08:54 | 20.03147 | 109.86893 | 35881 ft | 445 kts | 234° |
| 2026-04-23 08:55 | 19.99279 | 109.81760 | 35882 ft | 445 kts | 234° |
| 2026-04-23 08:55 | 19.95417 | 109.76640 | 35885 ft | 445 kts | 234° |
| 2026-04-23 08:56 | 19.91542 | 109.71503 | 35883 ft | 446 kts | 234° |
| 2026-04-23 08:56 | 19.87661 | 109.66363 | 35886 ft | 446 kts | 234° |
| 2026-04-23 08:57 | 19.83767 | 109.61211 | 35887 ft | 446 kts | 234° |
| 2026-04-23 08:57 | 19.79903 | 109.56107 | 35889 ft | 446 kts | 234° |
| 2026-04-23 08:58 | 19.75988 | 109.50939 | 35889 ft | 447 kts | 234° |
| 2026-04-23 08:58 | 19.72105 | 109.45818 | 35883 ft | 446 kts | 234° |
| 2026-04-23 08:59 | 19.68206 | 109.40677 | 35883 ft | 447 kts | 234° |
| 2026-04-23 08:59 | 19.64310 | 109.35547 | 35880 ft | 448 kts | 234° |
| 2026-04-23 09:00 | 19.60414 | 109.30421 | 35882 ft | 448 kts | 233° |
| 2026-04-23 09:00 | 19.56514 | 109.25294 | 35884 ft | 448 kts | 233° |
| 2026-04-23 09:01 | 19.52612 | 109.20168 | 35887 ft | 447 kts | 233° |
| 2026-04-23 09:01 | 19.48684 | 109.15047 | 35886 ft | 448 kts | 233° |
| 2026-04-23 09:02 | 19.44729 | 109.09921 | 35885 ft | 450 kts | 233° |
| 2026-04-23 09:02 | 19.40787 | 109.04816 | 35889 ft | 448 kts | 233° |
| 2026-04-23 09:03 | 19.36842 | 108.99706 | 35877 ft | 448 kts | 233° |
| 2026-04-23 09:03 | 19.32895 | 108.94599 | 35876 ft | 448 kts | 233° |
| 2026-04-23 09:04 | 19.28956 | 108.89505 | 35869 ft | 448 kts | 233° |
| 2026-04-23 09:04 | 19.25003 | 108.84401 | 35872 ft | 448 kts | 233° |
| 2026-04-23 09:05 | 19.21064 | 108.79314 | 35869 ft | 448 kts | 233° |
| 2026-04-23 09:05 | 19.17123 | 108.74227 | 35882 ft | 448 kts | 233° |
| 2026-04-23 09:06 | 19.13179 | 108.69143 | 35870 ft | 448 kts | 233° |
| 2026-04-23 09:06 | 19.09233 | 108.64059 | 35879 ft | 449 kts | 233° |
| 2026-04-23 09:07 | 19.05263 | 108.58948 | 35864 ft | 450 kts | 233° |
| 2026-04-23 09:07 | 19.01292 | 108.53846 | 35871 ft | 449 kts | 233° |
| 2026-04-23 09:08 | 18.97347 | 108.48777 | 35865 ft | 449 kts | 233° |
| 2026-04-23 09:08 | 18.93353 | 108.43649 | 35853 ft | 450 kts | 233° |
| 2026-04-23 09:09 | 18.89401 | 108.38581 | 35855 ft | 450 kts | 233° |
| 2026-04-23 09:09 | 18.85413 | 108.33467 | 35868 ft | 450 kts | 232° |
| 2026-04-23 09:10 | 18.79457 | 108.25843 | 35857 ft | 450 kts | 233° |
| 2026-04-23 09:11 | 18.75477 | 108.20752 | 35871 ft | 450 kts | 233° |
| 2026-04-23 09:11 | 18.71489 | 108.15657 | 35869 ft | 451 kts | 233° |
| 2026-04-23 09:12 | 18.67481 | 108.10538 | 35860 ft | 451 kts | 233° |
| 2026-04-23 09:12 | 18.63500 | 108.05456 | 35869 ft | 452 kts | 232° |
| 2026-04-23 09:13 | 18.59504 | 108.00365 | 35862 ft | 451 kts | 232° |
| 2026-04-23 09:13 | 18.55520 | 107.95289 | 35870 ft | 451 kts | 232° |
| 2026-04-23 09:14 | 18.51498 | 107.90170 | 35964 ft | 454 kts | 233° |
| 2026-04-23 09:14 | 18.49482 | 107.87605 | 36263 ft | 454 kts | 232° |
| 2026-04-23 09:14 | 18.47463 | 107.85040 | 36644 ft | 451 kts | 232° |
| 2026-04-23 09:14 | 18.45481 | 107.82521 | 36959 ft | 450 kts | 232° |
| 2026-04-23 09:15 | 18.43490 | 107.79992 | 37236 ft | 449 kts | 233° |
| 2026-04-23 09:15 | 18.41503 | 107.77469 | 37461 ft | 449 kts | 233° |
| 2026-04-23 09:15 | 18.39502 | 107.74930 | 37721 ft | 448 kts | 232° |
| 2026-04-23 09:16 | 18.35543 | 107.69857 | 37767 ft | 448 kts | 234° |
| 2026-04-23 09:16 | 18.31976 | 107.64523 | 37764 ft | 447 kts | 239° |
| 2026-04-23 09:17 | 18.28638 | 107.59003 | 37762 ft | 447 kts | 239° |
| 2026-04-23 09:17 | 18.25303 | 107.53484 | 37763 ft | 448 kts | 239° |
| 2026-04-23 09:18 | 18.21969 | 107.47971 | 37750 ft | 449 kts | 239° |
| 2026-04-23 09:18 | 18.18618 | 107.42441 | 37758 ft | 448 kts | 239° |
| 2026-04-23 09:19 | 18.15276 | 107.36929 | 37751 ft | 448 kts | 239° |
| 2026-04-23 09:19 | 18.11912 | 107.31385 | 37765 ft | 450 kts | 239° |
| 2026-04-23 09:20 | 18.08560 | 107.25865 | 37762 ft | 449 kts | 239° |
| 2026-04-23 09:20 | 18.05197 | 107.20331 | 37770 ft | 450 kts | 239° |
| 2026-04-23 09:21 | 18.01833 | 107.14805 | 37762 ft | 450 kts | 239° |
| 2026-04-23 09:21 | 17.98449 | 107.09258 | 37761 ft | 449 kts | 239° |
| 2026-04-23 09:22 | 17.95076 | 107.03731 | 37770 ft | 450 kts | 239° |
| 2026-04-23 09:22 | 17.91707 | 106.98216 | 37760 ft | 453 kts | 238° |
| 2026-04-23 09:23 | 17.88305 | 106.92652 | 37760 ft | 453 kts | 239° |
| 2026-04-23 09:23 | 17.84911 | 106.87067 | 37755 ft | 452 kts | 239° |
| 2026-04-23 09:24 | 17.81550 | 106.81531 | 37751 ft | 453 kts | 239° |
| 2026-04-23 09:24 | 17.78153 | 106.75947 | 37752 ft | 452 kts | 239° |
| 2026-04-23 09:25 | 17.74786 | 106.70416 | 37749 ft | 453 kts | 239° |
| 2026-04-23 09:25 | 17.71386 | 106.64842 | 37747 ft | 454 kts | 239° |
| 2026-04-23 09:26 | 17.67983 | 106.59262 | 37753 ft | 453 kts | 239° |
| 2026-04-23 09:26 | 17.64581 | 106.53705 | 37752 ft | 454 kts | 239° |
| 2026-04-23 09:27 | 17.61170 | 106.48144 | 37729 ft | 455 kts | 239° |
| 2026-04-23 09:27 | 17.57739 | 106.42554 | 37743 ft | 457 kts | 239° |
| 2026-04-23 09:28 | 17.54325 | 106.36996 | 37762 ft | 457 kts | 239° |
| 2026-04-23 09:28 | 17.50879 | 106.31391 | 37777 ft | 456 kts | 238° |
| 2026-04-23 09:29 | 17.47454 | 106.25825 | 37797 ft | 456 kts | 238° |
| 2026-04-23 09:29 | 17.44017 | 106.20246 | 37811 ft | 456 kts | 239° |
| 2026-04-23 09:30 | 17.40593 | 106.14688 | 37816 ft | 456 kts | 238° |
| 2026-04-23 09:30 | 17.37137 | 106.09086 | 37817 ft | 460 kts | 239° |
| 2026-04-23 09:31 | 17.33706 | 106.03453 | 37801 ft | 459 kts | 239° |
| 2026-04-23 09:31 | 17.30303 | 105.97817 | 37792 ft | 458 kts | 239° |
| 2026-04-23 09:32 | 17.26923 | 105.92232 | 37771 ft | 458 kts | 239° |
| 2026-04-23 09:32 | 17.23491 | 105.86568 | 37760 ft | 460 kts | 239° |
| 2026-04-23 09:33 | 17.20089 | 105.80962 | 37760 ft | 458 kts | 239° |
| 2026-04-23 09:33 | 17.16661 | 105.75322 | 37746 ft | 459 kts | 239° |
| 2026-04-23 09:34 | 17.13244 | 105.69701 | 37750 ft | 461 kts | 239° |
| 2026-04-23 09:34 | 17.09802 | 105.64044 | 37745 ft | 462 kts | 239° |
| 2026-04-23 09:35 | 17.06371 | 105.58410 | 37747 ft | 462 kts | 239° |
| 2026-04-23 09:35 | 17.02921 | 105.52751 | 37751 ft | 461 kts | 239° |
| 2026-04-23 09:36 | 16.99466 | 105.47084 | 37740 ft | 462 kts | 239° |
| 2026-04-23 09:36 | 16.96019 | 105.41441 | 37737 ft | 462 kts | 239° |
| 2026-04-23 09:37 | 16.92557 | 105.35776 | 37738 ft | 462 kts | 239° |
| 2026-04-23 09:37 | 16.89113 | 105.30144 | 37731 ft | 463 kts | 239° |
| 2026-04-23 09:38 | 16.85640 | 105.24471 | 37723 ft | 464 kts | 239° |
| 2026-04-23 09:38 | 16.82174 | 105.18820 | 37714 ft | 463 kts | 239° |
| 2026-04-23 09:39 | 16.78697 | 105.13155 | 37726 ft | 463 kts | 239° |
| 2026-04-23 09:39 | 16.75232 | 105.07515 | 37709 ft | 463 kts | 239° |
| 2026-04-23 09:40 | 16.71769 | 105.01886 | 37711 ft | 463 kts | 238° |
| 2026-04-23 09:40 | 16.68274 | 104.96209 | 37739 ft | 463 kts | 239° |
| 2026-04-23 09:41 | 16.64797 | 104.90568 | 37780 ft | 464 kts | 239° |
| 2026-04-23 09:41 | 16.61311 | 104.84916 | 37792 ft | 464 kts | 239° |
| 2026-04-23 09:42 | 16.57801 | 104.79286 | 37807 ft | 463 kts | 237° |
| 2026-04-23 09:42 | 16.53882 | 104.73957 | 37806 ft | 465 kts | 231° |
| 2026-04-23 09:43 | 16.49588 | 104.68926 | 37809 ft | 466 kts | 230° |
| 2026-04-23 09:43 | 16.45284 | 104.63927 | 37801 ft | 466 kts | 230° |
| 2026-04-23 09:44 | 16.40941 | 104.58880 | 37798 ft | 466 kts | 230° |
| 2026-04-23 09:44 | 16.36638 | 104.53879 | 37776 ft | 465 kts | 230° |
| 2026-04-23 09:45 | 16.32328 | 104.48874 | 37737 ft | 466 kts | 230° |
| 2026-04-23 09:45 | 16.27980 | 104.43828 | 37718 ft | 466 kts | 230° |
| 2026-04-23 09:46 | 16.23637 | 104.38828 | 37709 ft | 465 kts | 229° |
| 2026-04-23 09:46 | 16.19290 | 104.33862 | 37719 ft | 467 kts | 229° |
| 2026-04-23 09:47 | 16.14919 | 104.28875 | 37703 ft | 466 kts | 229° |
| 2026-04-23 09:47 | 16.10541 | 104.23878 | 37698 ft | 466 kts | 229° |
| 2026-04-23 09:48 | 16.06201 | 104.18928 | 37704 ft | 465 kts | 229° |
| 2026-04-23 09:48 | 16.01878 | 104.13912 | 37703 ft | 467 kts | 229° |
| 2026-04-23 09:49 | 15.97561 | 104.08865 | 37702 ft | 467 kts | 229° |
| 2026-04-23 09:49 | 15.93245 | 104.03826 | 37691 ft | 468 kts | 229° |
| 2026-04-23 09:50 | 15.88908 | 103.98772 | 37707 ft | 468 kts | 229° |
| 2026-04-23 09:50 | 15.84581 | 103.93735 | 37707 ft | 467 kts | 229° |
| 2026-04-23 09:51 | 15.80245 | 103.88693 | 37723 ft | 467 kts | 229° |
| 2026-04-23 09:51 | 15.75921 | 103.83669 | 37715 ft | 467 kts | 229° |
| 2026-04-23 09:52 | 15.71590 | 103.78642 | 37729 ft | 467 kts | 229° |
| 2026-04-23 09:52 | 15.67270 | 103.73626 | 37721 ft | 468 kts | 229° |
| 2026-04-23 09:53 | 15.62930 | 103.68592 | 37698 ft | 467 kts | 229° |
| 2026-04-23 09:53 | 15.58624 | 103.63602 | 37697 ft | 467 kts | 229° |
| 2026-04-23 09:54 | 15.54282 | 103.58571 | 37687 ft | 468 kts | 229° |
| 2026-04-23 09:54 | 15.49939 | 103.53544 | 37703 ft | 469 kts | 229° |
| 2026-04-23 09:55 | 15.45600 | 103.48528 | 37689 ft | 467 kts | 229° |
| 2026-04-23 09:55 | 15.41251 | 103.43501 | 37711 ft | 467 kts | 229° |
| 2026-04-23 09:56 | 15.36914 | 103.38491 | 37724 ft | 469 kts | 229° |
| 2026-04-23 09:56 | 15.32563 | 103.33472 | 37724 ft | 469 kts | 229° |
| 2026-04-23 09:57 | 15.28179 | 103.28413 | 37728 ft | 471 kts | 229° |
| 2026-04-23 09:57 | 15.23826 | 103.23398 | 37718 ft | 471 kts | 229° |
| 2026-04-23 09:58 | 15.19424 | 103.18324 | 37718 ft | 471 kts | 229° |
| 2026-04-23 09:58 | 15.15056 | 103.13299 | 37722 ft | 470 kts | 229° |
| 2026-04-23 09:59 | 15.10679 | 103.08263 | 37718 ft | 472 kts | 228° |
| 2026-04-23 09:59 | 15.06012 | 103.03454 | 37722 ft | 473 kts | 222° |
| 2026-04-23 10:00 | 15.00877 | 102.99185 | 37713 ft | 473 kts | 216° |
| 2026-04-23 10:00 | 14.95366 | 102.95511 | 37713 ft | 473 kts | 211° |
| 2026-04-23 10:01 | 14.89684 | 102.92039 | 37716 ft | 473 kts | 211° |
| 2026-04-23 10:01 | 14.84002 | 102.88561 | 37719 ft | 473 kts | 211° |
| 2026-04-23 10:02 | 14.78354 | 102.85104 | 37719 ft | 473 kts | 211° |
| 2026-04-23 10:02 | 14.72672 | 102.81629 | 37720 ft | 473 kts | 211° |
| 2026-04-23 10:03 | 14.66993 | 102.78157 | 37721 ft | 474 kts | 211° |
| 2026-04-23 10:03 | 14.61326 | 102.74715 | 37727 ft | 475 kts | 210° |
| 2026-04-23 10:04 | 14.55556 | 102.71298 | 37730 ft | 475 kts | 210° |
| 2026-04-23 10:04 | 14.49846 | 102.67923 | 37731 ft | 474 kts | 210° |
| 2026-04-23 10:05 | 14.44088 | 102.64513 | 37739 ft | 476 kts | 210° |
| 2026-04-23 10:05 | 14.38346 | 102.61114 | 37749 ft | 477 kts | 210° |
| 2026-04-23 10:06 | 14.32585 | 102.57722 | 37749 ft | 476 kts | 210° |
| 2026-04-23 10:06 | 14.26831 | 102.54346 | 37760 ft | 477 kts | 210° |
| 2026-04-23 10:07 | 14.21062 | 102.50966 | 37767 ft | 478 kts | 210° |
| 2026-04-23 10:07 | 14.15236 | 102.47553 | 37905 ft | 480 kts | 210° |
| 2026-04-23 10:07 | 14.12354 | 102.45864 | 38203 ft | 479 kts | 210° |
| 2026-04-23 10:08 | 14.09449 | 102.44162 | 38535 ft | 477 kts | 210° |
| 2026-04-23 10:08 | 14.06573 | 102.42478 | 38842 ft | 476 kts | 210° |
| 2026-04-23 10:08 | 14.03678 | 102.40785 | 39084 ft | 476 kts | 210° |
| 2026-04-23 10:09 | 13.97952 | 102.37437 | 39536 ft | 475 kts | 210° |
| 2026-04-23 10:09 | 13.95075 | 102.35755 | 39744 ft | 475 kts | 210° |
| 2026-04-23 10:09 | 13.89282 | 102.32371 | 39762 ft | 476 kts | 210° |
| 2026-04-23 10:10 | 13.83553 | 102.29024 | 39762 ft | 476 kts | 210° |
| 2026-04-23 10:10 | 13.77772 | 102.25651 | 39734 ft | 476 kts | 210° |
| 2026-04-23 10:11 | 13.72022 | 102.22298 | 39729 ft | 475 kts | 210° |
| 2026-04-23 10:11 | 13.66259 | 102.18946 | 39724 ft | 476 kts | 210° |
| 2026-04-23 10:12 | 13.60485 | 102.15591 | 39730 ft | 477 kts | 210° |
| 2026-04-23 10:12 | 13.54711 | 102.12238 | 39749 ft | 477 kts | 210° |
| 2026-04-23 10:13 | 13.48913 | 102.08871 | 39740 ft | 476 kts | 210° |
| 2026-04-23 10:13 | 13.43150 | 102.05527 | 39757 ft | 476 kts | 210° |
| 2026-04-23 10:14 | 13.37367 | 102.02174 | 39762 ft | 476 kts | 209° |
| 2026-04-23 10:14 | 13.31620 | 101.98845 | 39761 ft | 477 kts | 210° |
| 2026-04-23 10:15 | 13.25820 | 101.95487 | 39775 ft | 477 kts | 210° |
| 2026-04-23 10:15 | 13.20025 | 101.92127 | 39779 ft | 477 kts | 210° |
| 2026-04-23 10:16 | 13.14269 | 101.88779 | 39777 ft | 477 kts | 210° |
| 2026-04-23 10:16 | 13.08500 | 101.85429 | 39783 ft | 477 kts | 210° |
| 2026-04-23 10:17 | 13.02687 | 101.82062 | 39774 ft | 477 kts | 210° |
| 2026-04-23 10:17 | 12.96928 | 101.78750 | 39788 ft | 477 kts | 210° |
| 2026-04-23 10:18 | 12.91150 | 101.75382 | 39795 ft | 478 kts | 210° |
| 2026-04-23 10:18 | 12.85370 | 101.71949 | 39778 ft | 477 kts | 212° |
| 2026-04-23 10:19 | 12.79994 | 101.67964 | 39777 ft | 478 kts | 220° |
| 2026-04-23 10:19 | 12.75206 | 101.63307 | 39785 ft | 478 kts | 228° |
| 2026-04-23 10:20 | 12.71011 | 101.57980 | 39784 ft | 478 kts | 235° |
| 2026-04-23 10:20 | 12.67136 | 101.52450 | 39780 ft | 478 kts | 235° |
| 2026-04-23 10:21 | 12.63267 | 101.46940 | 39782 ft | 478 kts | 234° |
| 2026-04-23 10:21 | 12.59391 | 101.41450 | 39770 ft | 478 kts | 234° |
| 2026-04-23 10:22 | 12.55498 | 101.35948 | 39768 ft | 479 kts | 234° |
| 2026-04-23 10:22 | 12.51590 | 101.30432 | 39772 ft | 479 kts | 234° |
| 2026-04-23 10:23 | 12.47667 | 101.24897 | 39775 ft | 479 kts | 234° |
| 2026-04-23 10:23 | 12.43756 | 101.19383 | 39794 ft | 479 kts | 234° |
| 2026-04-23 10:24 | 12.39856 | 101.13886 | 39782 ft | 480 kts | 234° |
| 2026-04-23 10:24 | 12.35932 | 101.08358 | 39775 ft | 480 kts | 234° |
| 2026-04-23 10:25 | 12.32006 | 101.02831 | 39789 ft | 480 kts | 234° |
| 2026-04-23 10:25 | 12.28107 | 100.97344 | 39775 ft | 479 kts | 234° |
| 2026-04-23 10:26 | 12.24185 | 100.91830 | 39770 ft | 480 kts | 234° |
| 2026-04-23 10:26 | 12.20260 | 100.86317 | 39778 ft | 481 kts | 234° |
| 2026-04-23 10:27 | 12.16328 | 100.80798 | 39773 ft | 480 kts | 234° |
| 2026-04-23 10:27 | 12.12392 | 100.75274 | 39776 ft | 480 kts | 234° |
| 2026-04-23 10:28 | 12.08466 | 100.69771 | 39778 ft | 480 kts | 234° |
| 2026-04-23 10:28 | 12.04538 | 100.64265 | 39776 ft | 481 kts | 234° |
| 2026-04-23 10:29 | 12.00448 | 100.58882 | 39785 ft | 481 kts | 229° |
| 2026-04-23 10:29 | 11.95823 | 100.53960 | 39782 ft | 480 kts | 223° |
| 2026-04-23 10:30 | 11.90954 | 100.49316 | 39781 ft | 480 kts | 223° |
| 2026-04-23 10:30 | 11.86066 | 100.44656 | 39772 ft | 480 kts | 223° |
| 2026-04-23 10:31 | 11.81204 | 100.40005 | 39762 ft | 480 kts | 223° |
| 2026-04-23 10:31 | 11.76328 | 100.35343 | 39765 ft | 481 kts | 223° |
| 2026-04-23 10:32 | 11.71417 | 100.30653 | 39764 ft | 481 kts | 223° |
| 2026-04-23 10:32 | 11.66565 | 100.26023 | 39761 ft | 480 kts | 223° |
| 2026-04-23 10:33 | 11.61689 | 100.21368 | 39766 ft | 481 kts | 223° |
| 2026-04-23 10:33 | 11.56776 | 100.16683 | 39768 ft | 481 kts | 223° |
| 2026-04-23 10:34 | 11.51900 | 100.12038 | 39764 ft | 480 kts | 223° |
| 2026-04-23 10:34 | 11.47040 | 100.07407 | 39769 ft | 481 kts | 223° |
| 2026-04-23 10:35 | 11.42125 | 100.02726 | 39773 ft | 481 kts | 223° |
| 2026-04-23 10:35 | 11.37240 | 99.98077 | 39781 ft | 481 kts | 223° |
| 2026-04-23 10:36 | 11.32359 | 99.93436 | 39775 ft | 482 kts | 223° |
| 2026-04-23 10:36 | 11.27467 | 99.88786 | 39778 ft | 482 kts | 223° |
| 2026-04-23 10:37 | 11.22552 | 99.84117 | 39773 ft | 482 kts | 223° |
| 2026-04-23 10:37 | 11.17401 | 99.79755 | 39769 ft | 481 kts | 215° |
| 2026-04-23 10:38 | 11.11727 | 99.76192 | 39776 ft | 480 kts | 206° |
| 2026-04-23 10:38 | 11.05604 | 99.73480 | 39781 ft | 479 kts | 198° |
| 2026-04-23 10:39 | 10.99251 | 99.71444 | 39773 ft | 479 kts | 196° |
| 2026-04-23 10:39 | 10.92850 | 99.69460 | 39772 ft | 479 kts | 196° |
| 2026-04-23 10:40 | 10.86472 | 99.67473 | 39779 ft | 479 kts | 196° |
| 2026-04-23 10:40 | 10.80060 | 99.65470 | 39784 ft | 479 kts | 196° |
| 2026-04-23 10:41 | 10.73698 | 99.63481 | 39784 ft | 479 kts | 196° |
| 2026-04-23 10:41 | 10.67295 | 99.61479 | 39783 ft | 479 kts | 196° |
| 2026-04-23 10:42 | 10.60924 | 99.59487 | 39775 ft | 479 kts | 196° |
| 2026-04-23 10:42 | 10.54551 | 99.57496 | 39775 ft | 479 kts | 196° |
| 2026-04-23 10:43 | 10.48192 | 99.55510 | 39734 ft | 479 kts | 196° |
| 2026-04-23 10:43 | 10.44982 | 99.54508 | 39363 ft | 479 kts | 196° |
| 2026-04-23 10:43 | 10.41793 | 99.53511 | 38845 ft | 477 kts | 195° |
| 2026-04-23 10:44 | 10.38638 | 99.52526 | 38319 ft | 475 kts | 195° |
| 2026-04-23 10:44 | 10.35471 | 99.51539 | 37807 ft | 474 kts | 195° |
| 2026-04-23 10:44 | 10.32318 | 99.50555 | 37268 ft | 474 kts | 195° |
| 2026-04-23 10:44 | 10.29139 | 99.49564 | 36714 ft | 474 kts | 195° |
| 2026-04-23 10:45 | 10.25972 | 99.48576 | 36168 ft | 473 kts | 195° |
| 2026-04-23 10:45 | 10.22822 | 99.47595 | 35618 ft | 473 kts | 195° |
| 2026-04-23 10:45 | 10.19680 | 99.46616 | 35020 ft | 473 kts | 195° |
| 2026-04-23 10:45 | 10.16567 | 99.45647 | 34462 ft | 472 kts | 195° |
| 2026-04-23 10:46 | 10.13398 | 99.44659 | 33899 ft | 471 kts | 195° |
| 2026-04-23 10:46 | 10.10262 | 99.43682 | 33340 ft | 471 kts | 195° |
| 2026-04-23 10:46 | 10.07070 | 99.42690 | 32857 ft | 476 kts | 195° |
| 2026-04-23 10:46 | 10.03900 | 99.41703 | 32378 ft | 479 kts | 196° |
| 2026-04-23 10:47 | 10.00707 | 99.40709 | 31829 ft | 480 kts | 195° |
| 2026-04-23 10:47 | 9.97511 | 99.39713 | 31232 ft | 480 kts | 196° |
| 2026-04-23 10:47 | 9.94301 | 99.38715 | 30618 ft | 481 kts | 196° |
| 2026-04-23 10:47 | 9.91117 | 99.37725 | 30012 ft | 483 kts | 196° |
| 2026-04-23 10:48 | 9.87891 | 99.36721 | 29351 ft | 484 kts | 196° |
| 2026-04-23 10:48 | 9.84634 | 99.35707 | 28686 ft | 486 kts | 195° |
| 2026-04-23 10:48 | 9.81359 | 99.34689 | 28011 ft | 487 kts | 195° |
| 2026-04-23 10:48 | 9.78077 | 99.33669 | 27319 ft | 489 kts | 195° |
| 2026-04-23 10:49 | 9.74822 | 99.32659 | 26641 ft | 489 kts | 195° |
| 2026-04-23 10:49 | 9.71553 | 99.31643 | 26138 ft | 488 kts | 195° |
| 2026-04-23 10:49 | 9.68265 | 99.30621 | 25678 ft | 485 kts | 195° |
| 2026-04-23 10:49 | 9.65081 | 99.29633 | 25191 ft | 481 kts | 195° |
| 2026-04-23 10:50 | 9.61832 | 99.28626 | 24663 ft | 479 kts | 195° |
| 2026-04-23 10:50 | 9.58687 | 99.27651 | 24179 ft | 475 kts | 195° |
| 2026-04-23 10:50 | 9.55533 | 99.26672 | 23647 ft | 473 kts | 195° |
| 2026-04-23 10:50 | 9.52376 | 99.25693 | 23168 ft | 469 kts | 195° |
| 2026-04-23 10:51 | 9.49274 | 99.24728 | 22732 ft | 465 kts | 195° |
| 2026-04-23 10:51 | 9.46194 | 99.23769 | 22304 ft | 460 kts | 195° |
| 2026-04-23 10:51 | 9.43113 | 99.22811 | 21880 ft | 456 kts | 195° |
| 2026-04-23 10:51 | 9.40079 | 99.21869 | 21455 ft | 452 kts | 195° |
| 2026-04-23 10:52 | 9.37094 | 99.20943 | 21022 ft | 449 kts | 195° |
| 2026-04-23 10:52 | 9.34090 | 99.20010 | 20595 ft | 446 kts | 195° |
| 2026-04-23 10:52 | 9.31123 | 99.19090 | 20169 ft | 443 kts | 195° |
| 2026-04-23 10:52 | 9.28220 | 99.18191 | 19737 ft | 440 kts | 195° |
| 2026-04-23 10:53 | 9.25267 | 99.17277 | 19306 ft | 436 kts | 195° |
| 2026-04-23 10:53 | 9.22369 | 99.16379 | 18881 ft | 433 kts | 195° |
| 2026-04-23 10:53 | 9.19486 | 99.15485 | 18453 ft | 430 kts | 195° |
| 2026-04-23 10:53 | 9.16626 | 99.14597 | 18030 ft | 427 kts | 196° |
| 2026-04-23 10:54 | 9.13890 | 99.13507 | 17604 ft | 426 kts | 204° |
| 2026-04-23 10:54 | 9.11313 | 99.12036 | 17191 ft | 424 kts | 212° |
| 2026-04-23 10:54 | 9.08923 | 99.10237 | 16761 ft | 421 kts | 218° |
| 2026-04-23 10:54 | 9.06665 | 99.08384 | 16335 ft | 419 kts | 218° |
| 2026-04-23 10:55 | 9.04418 | 99.06518 | 15915 ft | 416 kts | 218° |
| 2026-04-23 10:55 | 9.02175 | 99.04659 | 15491 ft | 413 kts | 218° |
| 2026-04-23 10:55 | 8.99968 | 99.02838 | 15073 ft | 411 kts | 218° |
| 2026-04-23 10:55 | 8.97740 | 99.01006 | 14651 ft | 408 kts | 218° |
| 2026-04-23 10:56 | 8.95538 | 98.99199 | 14239 ft | 405 kts | 218° |
| 2026-04-23 10:56 | 8.93346 | 98.97402 | 13823 ft | 402 kts | 218° |
| 2026-04-23 10:56 | 8.91179 | 98.95628 | 13416 ft | 399 kts | 218° |
| 2026-04-23 10:56 | 8.89043 | 98.93881 | 13050 ft | 397 kts | 218° |
| 2026-04-23 10:57 | 8.86882 | 98.92115 | 12632 ft | 395 kts | 218° |
| 2026-04-23 10:57 | 8.84751 | 98.90373 | 12201 ft | 393 kts | 218° |
| 2026-04-23 10:57 | 8.82641 | 98.88647 | 11780 ft | 391 kts | 218° |
| 2026-04-23 10:57 | 8.80513 | 98.86906 | 11353 ft | 389 kts | 218° |
| 2026-04-23 10:58 | 8.78422 | 98.85201 | 10926 ft | 387 kts | 218° |
| 2026-04-23 10:58 | 8.76325 | 98.83494 | 10560 ft | 383 kts | 218° |
| 2026-04-23 10:58 | 8.74272 | 98.81821 | 10452 ft | 371 kts | 218° |
| 2026-04-23 10:58 | 8.72294 | 98.80212 | 10364 ft | 359 kts | 218° |
| 2026-04-23 10:59 | 8.70377 | 98.78652 | 10253 ft | 349 kts | 218° |
| 2026-04-23 10:59 | 8.68501 | 98.77126 | 10173 ft | 338 kts | 218° |
| 2026-04-23 10:59 | 8.66712 | 98.75671 | 10129 ft | 326 kts | 218° |
| 2026-04-23 10:59 | 8.64963 | 98.74249 | 10087 ft | 315 kts | 218° |
| 2026-04-23 11:00 | 8.63278 | 98.72880 | 10048 ft | 305 kts | 218° |
| 2026-04-23 11:00 | 8.61639 | 98.71547 | 9901 ft | 299 kts | 218° |
| 2026-04-23 11:00 | 8.60012 | 98.70225 | 9606 ft | 299 kts | 218° |
| 2026-04-23 11:00 | 8.58392 | 98.68909 | 9322 ft | 299 kts | 218° |
| 2026-04-23 11:01 | 8.56775 | 98.67595 | 9042 ft | 299 kts | 218° |
| 2026-04-23 11:01 | 8.55143 | 98.66268 | 8769 ft | 298 kts | 218° |
| 2026-04-23 11:01 | 8.53521 | 98.64950 | 8496 ft | 297 kts | 218° |
| 2026-04-23 11:01 | 8.51891 | 98.63625 | 8220 ft | 296 kts | 218° |
| 2026-04-23 11:02 | 8.50257 | 98.62376 | 7948 ft | 295 kts | 213° |
| 2026-04-23 11:02 | 8.48523 | 98.61264 | 7681 ft | 294 kts | 210° |
| 2026-04-23 11:02 | 8.46760 | 98.60193 | 7411 ft | 293 kts | 210° |
| 2026-04-23 11:02 | 8.45017 | 98.59141 | 7143 ft | 292 kts | 210° |
| 2026-04-23 11:03 | 8.43273 | 98.58089 | 6873 ft | 292 kts | 209° |
| 2026-04-23 11:03 | 8.41511 | 98.57021 | 6604 ft | 291 kts | 209° |
| 2026-04-23 11:03 | 8.39760 | 98.55959 | 6333 ft | 291 kts | 209° |
| 2026-04-23 11:03 | 8.38033 | 98.54912 | 6201 ft | 284 kts | 209° |
| 2026-04-23 11:04 | 8.36334 | 98.53977 | 6167 ft | 272 kts | 197° |
| 2026-04-23 11:04 | 8.34495 | 98.53696 | 6016 ft | 263 kts | 174° |
| 2026-04-23 11:04 | 8.32658 | 98.53857 | 5758 ft | 263 kts | 171° |
| 2026-04-23 11:04 | 8.30815 | 98.54068 | 5496 ft | 264 kts | 172° |
| 2026-04-23 11:05 | 8.28988 | 98.54269 | 5247 ft | 264 kts | 172° |
| 2026-04-23 11:05 | 8.27130 | 98.54458 | 5045 ft | 262 kts | 173° |
| 2026-04-23 11:05 | 8.25323 | 98.54633 | 5006 ft | 253 kts | 173° |
| 2026-04-23 11:05 | 8.23577 | 98.54797 | 4993 ft | 243 kts | 173° |
| 2026-04-23 11:06 | 8.20119 | 98.55128 | 4379 ft | 252 kts | 173° |
| 2026-04-23 11:06 | 8.18369 | 98.55294 | 4081 ft | 254 kts | 174° |
| 2026-04-23 11:06 | 8.16626 | 98.55458 | 4000 ft | 245 kts | 174° |
| 2026-04-23 11:07 | 8.14934 | 98.55358 | 3811 ft | 242 kts | 200° |
| 2026-04-23 11:07 | 8.13540 | 98.54452 | 3457 ft | 238 kts | 232° |
| 2026-04-23 11:07 | 8.12838 | 98.53001 | 3117 ft | 231 kts | 260° |
| 2026-04-23 11:07 | 8.12670 | 98.51439 | 2997 ft | 215 kts | 269° |
| 2026-04-23 11:08 | 8.12632 | 98.49990 | 3012 ft | 198 kts | 270° |
| 2026-04-23 11:08 | 8.12585 | 98.48649 | 3015 ft | 183 kts | 268° |
| 2026-04-23 11:08 | 8.12514 | 98.47367 | 2878 ft | 184 kts | 267° |
| 2026-04-23 11:08 | 8.12426 | 98.46094 | 2640 ft | 179 kts | 266° |
| 2026-04-23 11:09 | 8.12335 | 98.44855 | 2398 ft | 174 kts | 266° |
| 2026-04-23 11:09 | 8.12247 | 98.43670 | 2162 ft | 169 kts | 267° |
| 2026-04-23 11:09 | 8.12161 | 98.42500 | 1937 ft | 163 kts | 267° |
| 2026-04-23 11:09 | 8.12082 | 98.41395 | 1726 ft | 157 kts | 268° |
| 2026-04-23 11:10 | 8.12005 | 98.40319 | 1520 ft | 150 kts | 268° |
| 2026-04-23 11:10 | 8.11932 | 98.39281 | 1324 ft | 145 kts | 267° |
| 2026-04-23 11:10 | 8.11862 | 98.38264 | 1143 ft | 145 kts | 267° |
| 2026-04-23 11:10 | 8.11791 | 98.37260 | 951 ft | 145 kts | 268° |
| 2026-04-23 11:11 | 8.11730 | 98.36236 | 757 ft | 145 kts | 267° |
| 2026-04-23 11:11 | 8.11651 | 98.35232 | 540 ft | 144 kts | 264° |
| 2026-04-23 11:11 | 8.11552 | 98.34226 | 349 ft | 144 kts | 265° |
| 2026-04-23 11:11 | 8.11473 | 98.33223 | 161 ft | 143 kts | 265° |
| 2026-04-23 11:12 | 8.11381 | 98.32289 | 98 ft | 112 kts | 263° |
| 2026-04-23 11:12 | 8.11322 | 98.31686 | 98 ft | 59 kts | 263° |
| 2026-04-23 11:12 | 8.11294 | 98.31405 | 98 ft | 23 kts | 265° |
| 2026-04-23 11:12 | 8.11274 | 98.31256 | 98 ft | 26 kts | 257° |
| 2026-04-23 11:13 | 8.11197 | 98.31098 | 98 ft | 21 kts | 234° |
| 2026-04-23 11:13 | 8.11111 | 98.30975 | 98 ft | 20 kts | 237° |
| 2026-04-23 11:13 | 8.11076 | 98.30848 | 98 ft | 17 kts | 262° |
| 2026-04-23 11:13 | 8.11062 | 98.30724 | 98 ft | 17 kts | 264° |
| 2026-04-23 11:14 | 8.11051 | 98.30609 | 98 ft | 13 kts | 264° |
| 2026-04-23 11:14 | 8.11039 | 98.30516 | 98 ft | 13 kts | 248° |
| 2026-04-23 11:14 | 8.10963 | 98.30473 | 98 ft | 13 kts | 197° |
| 2026-04-23 11:14 | 8.10871 | 98.30449 | 98 ft | 13 kts | 194° |
| 2026-04-23 11:15 | 8.10776 | 98.30424 | 98 ft | 13 kts | 194° |
| 2026-04-23 11:15 | 8.10737 | 98.30427 | 98 ft | 4 kts | 134° |
| 2026-04-23 11:15 | 8.10724 | 98.30462 | 98 ft | 6 kts | 105° |
| 2026-04-23 11:15 | 8.10715 | 98.30496 | 98 ft | 1 kts | 104° |
| 2026-04-23 11:16 | 8.10713 | 98.30504 | 98 ft | 0 kts | 104° |
| 2026-04-23 11:16 | 8.10713 | 98.30505 | 98 ft | 0 kts | 104° |